createdAt,value
2022-11-05T00:03:25.417Z,13.77
2022-11-05T00:07:59.611Z,11.10
2022-11-05T00:12:26.522Z,14.50
2022-11-05T00:16:46.770Z,12.63
2022-11-05T00:20:48.800Z,13.53
2022-11-05T00:25:09.271Z,13.67
2022-11-05T00:29:11.089Z,17.50
2022-11-05T00:33:13.051Z,16.83
2022-11-05T00:37:16.063Z,14.90
2022-11-05T00:41:17.887Z,16.60
2022-11-05T00:45:20.196Z,15.17
2022-11-05T00:49:30.653Z,17.53
2022-11-05T00:53:32.727Z,15.60
2022-11-05T00:57:34.528Z,13.70
2022-11-05T01:01:36.520Z,15.23
2022-11-05T01:05:42.824Z,15.13
2022-11-05T01:09:44.587Z,14.17
2022-11-05T01:13:46.403Z,15.03
2022-11-05T01:17:48.294Z,15.23
2022-11-05T01:21:50.143Z,16.43
2022-11-05T01:25:52.016Z,13.97
2022-11-05T01:29:53.866Z,16.57
2022-11-05T01:33:55.674Z,15.13
2022-11-05T01:37:57.515Z,15.73
2022-11-05T01:41:59.560Z,16.93
2022-11-05T01:46:01.443Z,19.00
2022-11-05T01:50:29.207Z,13.20
2022-11-05T01:54:31.848Z,12.53
2022-11-05T01:58:54.446Z,12.37
2022-11-05T02:02:56.324Z,9.37
2022-11-05T02:06:58.184Z,10.43
2022-11-05T02:11:00.169Z,11.73
2022-11-05T02:15:01.961Z,11.73
2022-11-05T02:19:40.558Z,11.00
2022-11-05T02:24:17.506Z,12.93
2022-11-05T02:29:04.091Z,12.97
2022-11-05T02:33:26.825Z,10.63
2022-11-05T02:37:52.531Z,12.00
2022-11-05T02:42:24.601Z,9.80
2022-11-05T02:46:56.818Z,11.10
2022-11-05T02:51:07.449Z,10.13
2022-11-05T02:55:18.127Z,10.37
2022-11-05T02:59:19.995Z,10.27
2022-11-05T03:03:43.297Z,12.37
2022-11-05T03:07:51.280Z,9.80
2022-11-05T03:12:21.582Z,9.73
2022-11-05T03:16:43.417Z,9.67
2022-11-05T03:21:19.563Z,8.63
2022-11-05T03:25:22.989Z,13.80
2022-11-05T03:29:27.396Z,9.80
2022-11-05T03:33:30.118Z,12.10
2022-11-05T03:37:34.322Z,13.80
2022-11-05T03:41:36.173Z,15.90
2022-11-05T03:45:42.025Z,17.33
2022-11-05T03:50:15.306Z,18.90
2022-11-05T03:54:17.158Z,19.00
2022-11-05T03:58:20.623Z,17.77
2022-11-05T04:02:24.101Z,19.70
2022-11-05T04:06:44.962Z,23.43
2022-11-05T04:11:05.564Z,21.90
2022-11-05T04:15:08.417Z,29.20
2022-11-05T04:19:10.146Z,19.53
2022-11-05T04:23:30.144Z,23.30
2022-11-05T04:27:31.938Z,22.90
2022-11-05T04:31:33.744Z,19.03
2022-11-05T04:35:37.484Z,19.07
2022-11-05T04:39:39.263Z,18.30
2022-11-05T04:43:41.171Z,19.10
2022-11-05T04:47:43.072Z,19.10
2022-11-05T04:51:44.929Z,18.37
2022-11-05T04:55:46.838Z,19.27
2022-11-05T04:59:49.544Z,22.10
2022-11-05T05:03:51.979Z,21.33
2022-11-05T05:07:53.768Z,19.07
2022-11-05T05:11:55.616Z,17.80
2022-11-05T05:15:57.441Z,18.87
2022-11-05T05:20:17.478Z,17.93
2022-11-05T05:24:21.252Z,19.77
2022-11-05T05:28:23.030Z,20.40
2022-11-05T05:32:25.426Z,17.17
2022-11-05T05:36:27.238Z,16.97
2022-11-05T05:40:29.142Z,16.43
2022-11-05T05:44:30.944Z,18.30
2022-11-05T05:48:32.890Z,16.40
2022-11-05T05:52:34.803Z,20.87
2022-11-05T05:56:36.800Z,17.27
2022-11-05T06:00:38.587Z,17.17
2022-11-05T06:04:40.385Z,18.50
2022-11-05T06:08:45.429Z,16.57
2022-11-05T06:12:47.487Z,15.03
2022-11-05T06:16:49.601Z,15.87
2022-11-05T06:20:56.736Z,21.03
2022-11-05T06:25:21.397Z,23.83
2022-11-05T06:29:27.175Z,19.33
2022-11-05T06:34:25.094Z,17.70
2022-11-05T06:55:21.321Z,16.00
2022-11-05T07:05:50.237Z,21.53
2022-11-05T07:10:04.459Z,15.07
2022-11-05T07:14:06.490Z,14.87
2022-11-05T07:25:02.524Z,16.67
2022-11-05T07:36:24.095Z,19.13
2022-11-05T07:57:47.523Z,17.73
2022-11-05T08:01:49.810Z,17.50
2022-11-05T08:06:01.516Z,17.40
2022-11-05T08:10:06.389Z,17.63
2022-11-05T08:14:13.680Z,17.00
2022-11-05T08:19:26.036Z,16.23
2022-11-05T08:23:30.032Z,13.37
2022-11-05T08:27:31.934Z,14.83
2022-11-05T08:31:37.176Z,14.57
2022-11-05T08:35:39.840Z,12.23
2022-11-05T08:39:41.711Z,14.60
2022-11-05T08:43:49.547Z,15.10
2022-11-05T08:47:51.687Z,12.63
2022-11-05T08:51:53.507Z,18.60
2022-11-05T08:55:58.969Z,13.37
2022-11-05T09:00:00.954Z,13.27
2022-11-05T09:05:47.769Z,13.63
2022-11-05T09:10:58.661Z,14.77
2022-11-05T09:26:25.888Z,14.67
2022-11-05T09:30:34.384Z,16.57
2022-11-05T09:40:42.567Z,11.33
2022-11-05T09:44:59.807Z,12.53
2022-11-05T09:49:07.381Z,15.30
2022-11-05T09:53:20.535Z,10.87
2022-11-05T09:57:41.308Z,11.83
2022-11-05T10:02:17.985Z,11.70
2022-11-05T10:06:25.629Z,9.50
2022-11-05T10:10:48.018Z,11.57
2022-11-05T10:15:25.081Z,12.23
2022-11-05T10:19:36.459Z,11.33
2022-11-05T10:23:44.800Z,10.27
2022-11-05T10:27:53.243Z,10.77
2022-11-05T10:31:58.952Z,11.50
2022-11-05T10:36:07.075Z,9.67
2022-11-05T10:41:12.153Z,7.30
2022-11-05T10:45:31.962Z,9.40
2022-11-05T10:49:59.754Z,8.37
2022-11-05T10:54:12.171Z,10.07
2022-11-05T10:58:33.438Z,11.07
2022-11-05T11:02:38.378Z,7.77
2022-11-05T11:07:01.146Z,6.57
2022-11-05T11:11:10.803Z,5.03
2022-11-05T11:15:16.724Z,6.97
2022-11-05T11:19:38.076Z,7.80
2022-11-05T11:23:51.966Z,6.87
2022-11-05T11:28:03.348Z,8.90
2022-11-05T11:32:12.992Z,7.43
2022-11-05T11:36:22.360Z,7.30
2022-11-05T11:40:43.197Z,8.37
2022-11-05T11:45:13.597Z,6.33
2022-11-05T11:52:24.981Z,9.07
2022-11-05T11:55:31.378Z,13.37
2022-11-05T12:00:12.892Z,11.20
2022-11-05T12:04:56.578Z,8.00
2022-11-05T12:26:23.340Z,5.33
2022-11-05T12:30:25.463Z,6.30
2022-11-05T12:35:08.045Z,6.77
2022-11-05T12:39:59.516Z,7.47
2022-11-05T12:44:42.904Z,9.37
2022-11-05T12:49:41.015Z,7.93
2022-11-05T13:00:25.058Z,5.70
2022-11-05T13:05:34.971Z,10.17
2022-11-05T13:55:17.087Z,7.07
2022-11-05T14:17:27.649Z,5.93
2022-11-05T16:21:25.062Z,10.00
2022-11-05T17:22:03.583Z,12.37
2022-11-05T17:27:27.388Z,13.97
2022-11-05T20:44:46.366Z,22.70
2022-11-05T21:04:55.510Z,18.53
2022-11-05T21:34:53.376Z,19.20
2022-11-05T21:38:56.099Z,17.40
2022-11-05T21:42:58.121Z,20.63
2022-11-05T21:47:00.000Z,20.33
2022-11-05T21:51:20.618Z,22.03
2022-11-05T21:55:43.067Z,19.17
2022-11-05T21:59:48.447Z,20.17
2022-11-05T22:03:50.827Z,18.00
2022-11-05T22:07:52.722Z,20.80
2022-11-05T22:11:58.369Z,16.50
2022-11-05T22:21:00.573Z,17.43
2022-11-05T23:23:35.486Z,14.23
2022-11-05T23:27:17.598Z,14.23
2022-11-05T23:31:40.069Z,13.13
2022-11-05T23:36:14.040Z,13.53
2022-11-05T23:40:30.212Z,13.57
2022-11-05T23:44:53.353Z,14.47
2022-11-05T23:49:13.342Z,11.93
2022-11-05T23:53:20.166Z,12.07
2022-11-05T23:57:30.940Z,10.37
